Time;durP1;ratioP1;P1;durP2;ratioP2;P2;SDS_P1;SDS_P2;PMS_P1;PMS_P2;Temp;Humidity;BMP_temperature;BMP_pressure;BME280_temperature;BME280_humidity;BME280_pressure;Samples;Min_cycle;Max_cycle;Signal;HPM_P1;HPM_P2
2022/12/07 00:02:04;;;;;;;9.87;8.90;;;;;;;;;;5071696;28;20798;-77
2022/12/07 00:04:32;;;;;;;13.40;9.93;;;;;;;;;;5070780;28;20451;-77
2022/12/07 00:06:59;;;;;;;10.70;9.70;;;;;;;;;;5070730;28;20459;-77
2022/12/07 00:09:26;;;;;;;10.23;9.23;;;;;;;;;;5070245;28;20432;-77
2022/12/07 00:11:53;;;;;;;12.43;8.83;;;;;;;;;;5071319;28;20441;-77
2022/12/07 00:14:21;;;;;;;10.27;9.37;;;;;;;;;;5071803;28;20441;-77
2022/12/07 00:16:50;;;;;;;10.20;9.20;;;;;;;;;;5074128;28;20472;-76
2022/12/07 00:19:17;;;;;;;11.60;9.10;;;;;;;;;;5072709;28;20574;-77
2022/12/07 00:21:45;;;;;;;10.97;9.93;;;;;;;;;;5071092;28;20462;-76
2022/12/07 00:24:13;;;;;;;10.27;9.27;;;;;;;;;;5070461;28;20448;-77
2022/12/07 00:26:41;;;;;;;10.73;9.70;;;;;;;;;;5070902;28;20460;-75
2022/12/07 00:29:09;;;;;;;11.87;10.67;;;;;;;;;;5070949;28;20903;-76
2022/12/07 00:31:38;;;;;;;12.57;10.63;;;;;;;;;;5078522;28;20449;-75
2022/12/07 00:34:05;;;;;;;11.83;10.57;;;;;;;;;;5072141;28;20444;-77
2022/12/07 00:36:32;;;;;;;11.10;10.10;;;;;;;;;;5071484;28;20467;-77
2022/12/07 00:39:02;;;;;;;10.50;9.47;;;;;;;;;;5075441;28;20499;-76
2022/12/07 00:41:29;;;;;;;11.40;10.20;;;;;;;;;;5072326;28;20441;-75
2022/12/07 00:43:57;;;;;;;12.10;10.80;;;;;;;;;;5070251;28;20958;-76
2022/12/07 00:46:24;;;;;;;11.60;10.40;;;;;;;;;;5070346;28;20814;-76
2022/12/07 00:48:52;;;;;;;11.33;10.20;;;;;;;;;;5070507;28;20441;-77
2022/12/07 00:51:21;;;;;;;11.63;10.43;;;;;;;;;;5070109;28;20451;-77
2022/12/07 00:53:48;;;;;;;12.40;11.00;;;;;;;;;;5070419;28;20455;-76
2022/12/07 00:56:17;;;;;;;14.63;11.47;;;;;;;;;;5070427;28;20461;-78
2022/12/07 00:58:44;;;;;;;11.33;10.13;;;;;;;;;;5070130;28;20482;-77
2022/12/07 01:01:12;;;;;;;11.60;10.13;;;;;;;;;;5070416;28;20980;-76
2022/12/07 01:03:39;;;;;;;12.80;11.00;;;;;;;;;;5069997;28;20440;-76
2022/12/07 01:06:07;;;;;;;12.83;11.53;;;;;;;;;;5070019;28;20472;-77
2022/12/07 01:08:34;;;;;;;17.13;11.23;;;;;;;;;;5070532;28;20452;-77
2022/12/07 01:11:03;;;;;;;11.83;10.57;;;;;;;;;;5070018;28;20444;-76
2022/12/07 01:13:31;;;;;;;12.40;11.10;;;;;;;;;;5069197;28;20446;-76
2022/12/07 01:15:59;;;;;;;12.87;10.90;;;;;;;;;;5070368;28;20471;-76
2022/12/07 01:18:27;;;;;;;12.17;10.97;;;;;;;;;;5070280;28;20445;-76
2022/12/07 01:21:01;;;;;;;14.27;11.83;;;;;;;;;;5072192;28;20452;-77
2022/12/07 01:23:28;;;;;;;12.37;10.67;;;;;;;;;;5076460;28;20447;-75
2022/12/07 01:25:55;;;;;;;16.07;12.10;;;;;;;;;;5076889;28;20522;-75
2022/12/07 01:28:23;;;;;;;13.30;11.10;;;;;;;;;;5076961;28;20444;-77
2022/12/07 01:30:57;;;;;;;12.90;11.50;;;;;;;;;;5076884;28;20447;-76
2022/12/07 01:33:24;;;;;;;13.57;11.50;;;;;;;;;;5076024;28;20447;-77
2022/12/07 01:35:51;;;;;;;12.57;10.83;;;;;;;;;;5076714;28;20463;-76
2022/12/07 01:38:18;;;;;;;14.50;11.90;;;;;;;;;;5076831;28;20448;-77
2022/12/07 01:40:45;;;;;;;14.37;11.10;;;;;;;;;;5076821;28;20484;-77
2022/12/07 01:43:16;;;;;;;14.00;12.50;;;;;;;;;;5075912;28;20444;-77
2022/12/07 01:45:43;;;;;;;20.00;13.07;;;;;;;;;;5076652;28;20491;-76
2022/12/07 01:48:12;;;;;;;14.20;12.67;;;;;;;;;;5076431;28;20444;-76
2022/12/07 01:50:40;;;;;;;12.70;11.40;;;;;;;;;;5076256;28;20428;-77
2022/12/07 01:53:09;;;;;;;13.23;11.07;;;;;;;;;;5075966;28;20443;-77
2022/12/07 01:55:37;;;;;;;12.87;11.43;;;;;;;;;;5076364;28;20460;-76
2022/12/07 01:58:05;;;;;;;12.50;11.20;;;;;;;;;;5076560;28;20455;-75
2022/12/07 02:00:32;;;;;;;12.70;11.40;;;;;;;;;;5078198;28;20473;-76
2022/12/07 02:03:03;;;;;;;11.90;10.70;;;;;;;;;;5077008;28;20450;-76
2022/12/07 02:05:32;;;;;;;12.40;11.20;;;;;;;;;;5076205;28;21013;-76
2022/12/07 02:08:00;;;;;;;12.97;11.13;;;;;;;;;;5076296;28;20981;-76
2022/12/07 02:10:28;;;;;;;11.87;10.63;;;;;;;;;;5076431;28;20806;-76
2022/12/07 02:12:57;;;;;;;12.33;11.03;;;;;;;;;;5076399;28;20455;-77
2022/12/07 02:15:28;;;;;;;13.30;11.00;;;;;;;;;;5077150;28;20820;-75
2022/12/07 02:17:57;;;;;;;11.97;10.77;;;;;;;;;;5076939;28;20443;-76
2022/12/07 02:20:29;;;;;;;12.13;10.67;;;;;;;;;;5076665;28;20490;-76
2022/12/07 02:23:11;;;;;;;12.40;10.67;;;;;;;;;;5075892;28;20427;-76
2022/12/07 02:25:53;;;;;;;12.33;10.60;;;;;;;;;;5076060;28;20829;-76
2022/12/07 02:28:26;;;;;;;12.27;10.93;;;;;;;;;;5075913;28;20436;-75
2022/12/07 02:30:56;;;;;;;12.13;10.93;;;;;;;;;;5076335;28;20420;-76
2022/12/07 02:33:26;;;;;;;12.93;9.77;;;;;;;;;;5072660;28;20441;-75
2022/12/07 02:35:56;;;;;;;12.00;10.37;;;;;;;;;;5072969;28;20468;-77
2022/12/07 02:38:27;;;;;;;11.60;10.40;;;;;;;;;;5072608;28;20452;-76
2022/12/07 02:40:56;;;;;;;13.87;11.30;;;;;;;;;;5072779;28;20464;-76
2022/12/07 02:43:25;;;;;;;12.53;10.30;;;;;;;;;;5072094;28;20463;-76
2022/12/07 02:45:53;;;;;;;12.60;10.53;;;;;;;;;;5072626;28;20578;-76
2022/12/07 02:48:22;;;;;;;9.93;8.90;;;;;;;;;;5074550;28;20470;-76
2022/12/07 02:50:50;;;;;;;13.13;11.30;;;;;;;;;;5077406;28;20443;-76
2022/12/07 02:53:33;;;;;;;12.93;10.97;;;;;;;;;;5075906;28;20557;-76
2022/12/07 02:56:01;;;;;;;12.43;11.13;;;;;;;;;;5076963;28;20460;-76
2022/12/07 02:58:34;;;;;;;11.67;10.50;;;;;;;;;;5076350;28;20943;-78
2022/12/07 03:01:06;;;;;;;13.40;10.80;;;;;;;;;;5072869;28;20489;-77
2022/12/07 03:03:37;;;;;;;11.90;10.67;;;;;;;;;;5071971;28;20941;-76
2022/12/07 03:06:09;;;;;;;13.57;10.47;;;;;;;;;;5072483;28;20482;-77
2022/12/07 03:08:40;;;;;;;12.53;11.30;;;;;;;;;;5072503;28;20434;-76
2022/12/07 03:11:09;;;;;;;11.47;10.27;;;;;;;;;;5072538;28;20451;-75
2022/12/07 03:13:40;;;;;;;10.93;9.67;;;;;;;;;;5066926;28;20446;-76
2022/12/07 03:16:10;;;;;;;12.10;10.60;;;;;;;;;;5052654;28;20478;-75
2022/12/07 03:18:40;;;;;;;11.10;9.90;;;;;;;;;;5052789;28;20442;-75
2022/12/07 03:21:10;;;;;;;14.10;10.53;;;;;;;;;;5054246;28;20483;-77
2022/12/07 03:23:39;;;;;;;12.73;10.80;;;;;;;;;;5051603;28;20453;-76
2022/12/07 03:26:08;;;;;;;12.00;10.10;;;;;;;;;;5051735;28;21010;-77
2022/12/07 03:28:38;;;;;;;11.73;9.90;;;;;;;;;;5052029;28;20955;-75
2022/12/07 03:31:08;;;;;;;12.37;9.80;;;;;;;;;;5052061;28;20440;-76
2022/12/07 03:33:41;;;;;;;12.10;10.73;;;;;;;;;;5051843;28;20452;-76
2022/12/07 03:36:12;;;;;;;14.13;11.47;;;;;;;;;;5054320;28;20842;-75
2022/12/07 03:38:42;;;;;;;12.40;10.40;;;;;;;;;;5052586;28;20773;-76
2022/12/07 03:41:11;;;;;;;12.93;10.00;;;;;;;;;;5052467;28;20483;-75
2022/12/07 03:43:38;;;;;;;14.10;10.67;;;;;;;;;;5053525;28;20448;-77
2022/12/07 03:46:10;;;;;;;11.77;10.30;;;;;;;;;;5051641;28;20517;-74
2022/12/07 03:48:38;;;;;;;11.07;9.83;;;;;;;;;;5070367;28;21188;-77
2022/12/07 03:51:10;;;;;;;12.70;11.20;;;;;;;;;;5071481;28;20437;-77
2022/12/07 03:53:42;;;;;;;11.33;9.97;;;;;;;;;;5071396;28;20425;-77
2022/12/07 03:56:10;;;;;;;11.97;10.20;;;;;;;;;;5071157;28;20989;-76
2022/12/07 03:58:37;;;;;;;13.50;9.70;;;;;;;;;;5071272;28;20444;-75
2022/12/07 04:01:04;;;;;;;13.20;10.70;;;;;;;;;;5071232;28;20511;-76
2022/12/07 04:03:31;;;;;;;10.80;9.80;;;;;;;;;;5071151;28;20444;-76
2022/12/07 04:05:58;;;;;;;10.60;9.50;;;;;;;;;;5071247;28;20474;-77
2022/12/07 04:08:25;;;;;;;11.00;9.67;;;;;;;;;;5071254;28;20457;-76
2022/12/07 04:10:54;;;;;;;10.97;9.87;;;;;;;;;;5071035;28;20448;-75
2022/12/07 04:13:21;;;;;;;10.77;9.67;;;;;;;;;;5070364;28;20447;-75
2022/12/07 04:15:48;;;;;;;11.67;9.50;;;;;;;;;;5070897;28;20467;-76
2022/12/07 04:18:15;;;;;;;11.23;9.97;;;;;;;;;;5070706;28;20965;-77
2022/12/07 04:20:42;;;;;;;12.20;10.10;;;;;;;;;;5070659;28;20480;-76
2022/12/07 04:23:09;;;;;;;9.80;8.90;;;;;;;;;;5068291;28;20761;-76
2022/12/07 04:25:36;;;;;;;9.97;8.97;;;;;;;;;;5057386;28;20470;-75
2022/12/07 04:28:05;;;;;;;10.23;9.20;;;;;;;;;;5055494;28;20437;-77
2022/12/07 04:30:32;;;;;;;9.63;8.03;;;;;;;;;;5070354;28;20439;-76
2022/12/07 04:32:59;;;;;;;9.00;8.00;;;;;;;;;;5069973;28;21180;-76
2022/12/07 04:35:26;;;;;;;9.20;7.80;;;;;;;;;;5070527;28;20471;-76
2022/12/07 04:37:53;;;;;;;10.20;9.10;;;;;;;;;;5070605;28;20447;-76
2022/12/07 04:40:20;;;;;;;9.00;8.10;;;;;;;;;;5070593;28;20562;-76
2022/12/07 04:42:47;;;;;;;11.50;8.70;;;;;;;;;;5070044;28;20443;-75
2022/12/07 04:45:15;;;;;;;7.97;7.17;;;;;;;;;;5070473;28;20471;-76
2022/12/07 04:47:42;;;;;;;8.53;7.27;;;;;;;;;;5070574;28;20440;-77
2022/12/07 04:50:11;;;;;;;8.23;7.43;;;;;;;;;;5070361;28;20454;-77
2022/12/07 04:52:38;;;;;;;8.33;7.53;;;;;;;;;;5070065;28;20445;-76
2022/12/07 04:55:05;;;;;;;8.03;7.20;;;;;;;;;;5070408;28;20494;-75
2022/12/07 04:57:32;;;;;;;7.57;6.87;;;;;;;;;;5070029;28;20442;-75
2022/12/07 04:59:59;;;;;;;7.10;6.50;;;;;;;;;;5070088;28;21016;-76
2022/12/07 05:02:28;;;;;;;7.70;7.00;;;;;;;;;;5069888;28;20526;-75
2022/12/07 05:04:55;;;;;;;7.27;6.57;;;;;;;;;;5069703;28;20466;-75
2022/12/07 05:07:22;;;;;;;7.23;6.50;;;;;;;;;;5070331;28;20830;-76
2022/12/07 05:09:49;;;;;;;6.90;6.20;;;;;;;;;;5070134;28;20447;-76
2022/12/07 05:12:16;;;;;;;7.10;6.40;;;;;;;;;;5073047;28;20447;-76
2022/12/07 05:14:43;;;;;;;7.90;6.53;;;;;;;;;;5069299;28;21065;-76
2022/12/07 05:17:11;;;;;;;7.03;6.33;;;;;;;;;;5070243;28;20893;-76
2022/12/07 05:19:39;;;;;;;7.53;6.73;;;;;;;;;;5069919;28;20460;-77
2022/12/07 05:22:06;;;;;;;7.30;6.60;;;;;;;;;;5070300;28;20452;-76
2022/12/07 05:24:33;;;;;;;9.00;7.73;;;;;;;;;;5069467;28;20457;-77
2022/12/07 05:27:00;;;;;;;9.10;8.17;;;;;;;;;;5070089;28;20463;-76
2022/12/07 05:29:27;;;;;;;8.30;7.50;;;;;;;;;;5069636;28;20448;-75
2022/12/07 05:31:54;;;;;;;8.80;7.90;;;;;;;;;;5052480;28;20437;-76
2022/12/07 05:34:22;;;;;;;9.00;7.93;;;;;;;;;;5050671;28;20452;-77
2022/12/07 05:36:50;;;;;;;9.07;7.83;;;;;;;;;;5069833;28;20461;-76
2022/12/07 05:39:18;;;;;;;13.00;7.80;;;;;;;;;;5067047;28;20494;-77
2022/12/07 05:44:30;;;;;;;9.80;8.40;;;;;;;;;;5049389;28;20491;-77
2022/12/07 05:46:57;;;;;;;10.97;9.97;;;;;;;;;;5065557;28;20451;-77
2022/12/07 05:49:24;;;;;;;12.80;11.30;;;;;;;;;;5070073;28;20443;-76
2022/12/07 05:51:52;;;;;;;19.70;16.77;;;;;;;;;;5069769;28;20809;-77
2022/12/07 05:54:19;;;;;;;27.73;24.23;;;;;;;;;;5069148;28;20449;-76
2022/12/07 05:56:46;;;;;;;10.83;9.20;;;;;;;;;;5069177;28;20471;-77
2022/12/07 05:59:27;;;;;;;13.10;11.27;;;;;;;;;;5069510;28;20453;-76
2022/12/07 06:01:55;;;;;;;10.00;8.97;;;;;;;;;;5069688;28;20474;-76
2022/12/07 06:04:22;;;;;;;11.10;9.87;;;;;;;;;;5069280;28;20447;-76
2022/12/07 06:06:49;;;;;;;11.07;9.80;;;;;;;;;;5069625;28;20471;-76
2022/12/07 06:09:18;;;;;;;10.03;9.03;;;;;;;;;;5072565;28;20453;-77
2022/12/07 06:14:30;;;;;;;11.47;9.27;;;;;;;;;;5072779;28;20397;-77
2022/12/07 06:16:57;;;;;;;9.37;8.50;;;;;;;;;;5073769;28;21050;-75
2022/12/07 06:19:24;;;;;;;10.43;9.43;;;;;;;;;;5073897;28;20443;-76
2022/12/07 06:21:51;;;;;;;10.47;9.37;;;;;;;;;;5075744;28;20476;-75
2022/12/07 06:24:20;;;;;;;13.03;11.10;;;;;;;;;;5075079;28;20448;-76
2022/12/07 06:26:47;;;;;;;11.57;10.27;;;;;;;;;;5073693;28;20466;-76
2022/12/07 06:29:14;;;;;;;10.87;9.87;;;;;;;;;;5073436;28;20450;-75
2022/12/07 06:31:41;;;;;;;12.70;10.97;;;;;;;;;;5073444;28;20444;-76
2022/12/07 06:34:10;;;;;;;9.67;8.70;;;;;;;;;;5072626;28;20450;-77
2022/12/07 06:36:37;;;;;;;11.53;8.03;;;;;;;;;;5074164;28;20460;-76
2022/12/07 06:39:05;;;;;;;12.87;10.33;;;;;;;;;;5075151;28;20482;-76
2022/12/07 06:41:33;;;;;;;11.90;9.40;;;;;;;;;;5073808;28;20486;-77
2022/12/07 06:44:00;;;;;;;13.13;9.27;;;;;;;;;;5073781;28;20444;-76
2022/12/07 06:46:27;;;;;;;8.33;7.50;;;;;;;;;;5074809;28;20468;-76
2022/12/07 06:48:54;;;;;;;10.30;8.10;;;;;;;;;;5073213;28;20824;-77
2022/12/07 06:51:21;;;;;;;10.60;9.50;;;;;;;;;;5072960;28;20510;-77
2022/12/07 06:53:48;;;;;;;8.50;7.60;;;;;;;;;;5072359;28;20470;-77
2022/12/07 06:56:15;;;;;;;8.10;7.30;;;;;;;;;;5072237;28;20580;-76
2022/12/07 06:58:44;;;;;;;9.13;7.47;;;;;;;;;;5072855;28;20466;-76
2022/12/07 07:01:11;;;;;;;8.60;7.70;;;;;;;;;;5072507;28;20471;-76
2022/12/07 07:03:39;;;;;;;8.57;7.77;;;;;;;;;;5071824;28;20991;-77
2022/12/07 07:06:07;;;;;;;8.33;7.17;;;;;;;;;;5072521;28;20483;-76
2022/12/07 07:08:34;;;;;;;7.07;6.37;;;;;;;;;;5072692;28;21014;-76
2022/12/07 07:11:02;;;;;;;8.33;7.57;;;;;;;;;;5072320;28;21112;-76
2022/12/07 07:13:29;;;;;;;9.20;7.87;;;;;;;;;;5068028;28;20823;-76
2022/12/07 07:15:57;;;;;;;9.90;8.87;;;;;;;;;;5056194;28;20473;-77
2022/12/07 07:18:25;;;;;;;8.57;7.60;;;;;;;;;;5064488;28;20843;-75
2022/12/07 07:20:52;;;;;;;9.23;7.73;;;;;;;;;;5071854;28;20836;-77
2022/12/07 07:23:19;;;;;;;7.97;6.77;;;;;;;;;;5064256;28;20446;-76
2022/12/07 07:25:46;;;;;;;12.47;7.50;;;;;;;;;;5052321;28;20463;-77
2022/12/07 07:28:13;;;;;;;8.90;6.97;;;;;;;;;;5052263;28;20441;-76
2022/12/07 07:30:40;;;;;;;9.73;7.40;;;;;;;;;;5053725;28;20438;-77
2022/12/07 07:33:08;;;;;;;7.13;6.40;;;;;;;;;;5071661;28;20443;-77
2022/12/07 07:35:36;;;;;;;7.80;6.50;;;;;;;;;;5072601;28;20466;-76
2022/12/07 07:38:03;;;;;;;7.23;6.50;;;;;;;;;;5072904;28;20854;-77
2022/12/07 07:40:30;;;;;;;8.30;7.20;;;;;;;;;;5072615;28;20490;-77
2022/12/07 07:42:58;;;;;;;8.43;7.40;;;;;;;;;;5071511;28;20444;-77
2022/12/07 07:45:26;;;;;;;7.17;6.57;;;;;;;;;;5071726;28;20482;-75
2022/12/07 07:47:53;;;;;;;7.57;6.60;;;;;;;;;;5072266;28;20469;-78
2022/12/07 07:50:22;;;;;;;8.40;6.97;;;;;;;;;;5072033;28;20454;-77
2022/12/07 07:52:49;;;;;;;8.47;6.50;;;;;;;;;;5073015;28;20447;-77
2022/12/07 07:55:16;;;;;;;11.50;7.60;;;;;;;;;;5080470;28;20999;-76
2022/12/07 07:57:43;;;;;;;7.87;7.07;;;;;;;;;;5073395;28;20453;-77
2022/12/07 08:00:11;;;;;;;7.27;6.57;;;;;;;;;;5072695;28;20757;-77
2022/12/07 08:02:38;;;;;;;6.23;5.63;;;;;;;;;;5072102;28;20443;-75
2022/12/07 08:05:06;;;;;;;8.37;6.83;;;;;;;;;;5085172;28;20493;-76
2022/12/07 08:07:34;;;;;;;6.73;6.03;;;;;;;;;;5085814;28;20819;-77
2022/12/07 08:10:01;;;;;;;6.77;6.07;;;;;;;;;;5085784;28;20444;-77
2022/12/07 08:12:28;;;;;;;8.87;6.57;;;;;;;;;;5081305;28;20443;-77
2022/12/07 08:14:55;;;;;;;7.93;7.13;;;;;;;;;;5081742;28;20460;-75
2022/12/07 08:17:23;;;;;;;6.93;5.90;;;;;;;;;;5083538;28;20807;-76
2022/12/07 08:19:50;;;;;;;8.40;6.57;;;;;;;;;;5081742;28;20526;-76
2022/12/07 08:22:17;;;;;;;7.40;5.83;;;;;;;;;;5074012;28;20844;-76
2022/12/07 08:24:45;;;;;;;6.70;6.00;;;;;;;;;;5070227;28;20453;-75
2022/12/07 08:27:12;;;;;;;9.07;6.10;;;;;;;;;;5071180;28;20444;-77
2022/12/07 08:29:39;;;;;;;8.37;5.63;;;;;;;;;;5071871;28;20451;-76
2022/12/07 08:32:06;;;;;;;6.07;5.17;;;;;;;;;;5070595;28;20449;-76
2022/12/07 08:34:33;;;;;;;5.93;5.43;;;;;;;;;;5070930;28;20450;-76
2022/12/07 08:37:00;;;;;;;5.93;5.23;;;;;;;;;;5070985;28;20444;-76
2022/12/07 08:39:27;;;;;;;6.40;5.77;;;;;;;;;;5070576;28;20447;-77
2022/12/07 08:41:56;;;;;;;7.50;5.90;;;;;;;;;;5071145;28;20478;-77
2022/12/07 08:44:23;;;;;;;5.97;5.40;;;;;;;;;;5070194;28;20459;-76
2022/12/07 08:46:52;;;;;;;7.97;6.77;;;;;;;;;;5070859;28;20459;-76
2022/12/07 08:49:20;;;;;;;5.77;4.83;;;;;;;;;;5070554;28;20454;-77
2022/12/07 08:51:48;;;;;;;5.90;5.03;;;;;;;;;;5070590;28;20483;-76
2022/12/07 08:54:16;;;;;;;6.40;5.80;;;;;;;;;;5070201;28;20445;-77
2022/12/07 08:56:43;;;;;;;6.63;5.10;;;;;;;;;;5070436;28;20861;-76
2022/12/07 08:59:14;;;;;;;7.30;5.77;;;;;;;;;;5070899;28;20456;-76
2022/12/07 09:01:41;;;;;;;5.73;5.23;;;;;;;;;;5070890;28;20465;-76
2022/12/07 09:04:11;;;;;;;5.97;5.37;;;;;;;;;;5069744;28;20444;-77
2022/12/07 09:06:38;;;;;;;6.80;6.10;;;;;;;;;;5070305;28;20472;-77
2022/12/07 09:09:06;;;;;;;6.07;5.47;;;;;;;;;;5070735;28;20448;-77
2022/12/07 09:11:33;;;;;;;5.60;5.10;;;;;;;;;;5070622;28;20534;-76
2022/12/07 09:14:00;;;;;;;6.03;5.17;;;;;;;;;;5069906;28;20495;-76
2022/12/07 09:16:28;;;;;;;6.87;5.37;;;;;;;;;;5070518;28;20844;-76
2022/12/07 09:18:56;;;;;;;4.70;4.30;;;;;;;;;;5070660;28;20440;-76
2022/12/07 09:21:23;;;;;;;5.87;5.13;;;;;;;;;;5070448;28;20831;-76
2022/12/07 09:23:50;;;;;;;6.23;4.80;;;;;;;;;;5070883;28;20495;-77
2022/12/07 09:26:17;;;;;;;5.43;4.93;;;;;;;;;;5073040;28;20490;-77
2022/12/07 09:28:44;;;;;;;5.30;4.80;;;;;;;;;;5063419;28;20471;-77
2022/12/07 09:31:11;;;;;;;6.07;5.33;;;;;;;;;;5070331;28;20445;-75
2022/12/07 09:33:41;;;;;;;5.83;4.90;;;;;;;;;;5069584;28;21263;-77
2022/12/07 09:36:09;;;;;;;4.80;4.40;;;;;;;;;;5070605;28;20500;-77
2022/12/07 09:38:36;;;;;;;5.43;4.37;;;;;;;;;;5072777;28;20475;-78
2022/12/07 09:41:06;;;;;;;5.13;4.63;;;;;;;;;;5078953;28;20715;-78
2022/12/07 09:43:34;;;;;;;4.20;3.90;;;;;;;;;;5075731;28;20519;-77
2022/12/07 09:46:02;;;;;;;5.00;4.63;;;;;;;;;;5075954;28;20479;-77
2022/12/07 09:48:31;;;;;;;4.47;4.07;;;;;;;;;;5078498;28;20448;-78
2022/12/07 09:51:01;;;;;;;3.77;3.47;;;;;;;;;;5075193;28;20463;-77
2022/12/07 09:53:29;;;;;;;4.93;4.53;;;;;;;;;;5074006;28;20448;-77
2022/12/07 09:55:56;;;;;;;4.20;3.90;;;;;;;;;;5073998;28;20460;-77
2022/12/07 09:58:27;;;;;;;4.30;3.90;;;;;;;;;;5074346;28;20447;-78
2022/12/07 10:00:55;;;;;;;4.17;3.80;;;;;;;;;;5075806;28;20452;-78
2022/12/07 10:03:22;;;;;;;4.93;4.00;;;;;;;;;;5075570;28;20471;-78
2022/12/07 10:05:50;;;;;;;4.67;3.90;;;;;;;;;;5074022;28;20468;-80
2022/12/07 10:08:19;;;;;;;4.20;3.23;;;;;;;;;;5074657;28;20449;-78
2022/12/07 10:10:47;;;;;;;3.17;2.97;;;;;;;;;;5073096;28;20951;-77
2022/12/07 10:13:15;;;;;;;3.60;3.40;;;;;;;;;;5072526;28;20451;-77
2022/12/07 10:15:45;;;;;;;4.33;4.03;;;;;;;;;;5058284;28;20485;-76
2022/12/07 10:18:19;;;;;;;4.13;3.80;;;;;;;;;;5058677;28;20446;-78
2022/12/07 10:20:46;;;;;;;4.10;3.70;;;;;;;;;;5058010;28;20450;-77
2022/12/07 10:23:16;;;;;;;4.57;3.80;;;;;;;;;;5054684;28;20532;-77
2022/12/07 10:25:45;;;;;;;4.63;4.23;;;;;;;;;;5053836;28;20472;-77
2022/12/07 10:28:16;;;;;;;4.80;4.40;;;;;;;;;;5057857;28;20450;-77
2022/12/07 10:30:58;;;;;;;4.57;4.17;;;;;;;;;;5054553;28;20445;-78
2022/12/07 10:33:33;;;;;;;7.27;4.77;;;;;;;;;;5054106;28;20494;-78
2022/12/07 10:36:01;;;;;;;4.80;4.40;;;;;;;;;;5053573;28;20465;-77
2022/12/07 10:38:31;;;;;;;5.70;4.17;;;;;;;;;;5054330;28;20445;-77
2022/12/07 10:41:07;;;;;;;4.97;4.30;;;;;;;;;;5054533;28;20953;-77
2022/12/07 10:43:34;;;;;;;4.70;4.17;;;;;;;;;;5054124;28;20476;-77
2022/12/07 10:46:10;;;;;;;7.00;4.40;;;;;;;;;;5053888;28;21003;-77
2022/12/07 10:48:42;;;;;;;5.13;4.63;;;;;;;;;;5053498;28;20453;-78
2022/12/07 10:51:12;;;;;;;7.23;4.53;;;;;;;;;;5054347;28;20637;-77
2022/12/07 10:53:51;;;;;;;5.87;5.37;;;;;;;;;;5054421;28;20908;-78
2022/12/07 10:56:26;;;;;;;7.77;4.80;;;;;;;;;;5055402;28;20473;-78
2022/12/07 10:58:59;;;;;;;5.40;4.90;;;;;;;;;;5054722;28;20468;-79
2022/12/07 11:01:30;;;;;;;5.30;4.67;;;;;;;;;;5054183;28;20485;-77
2022/12/07 11:04:09;;;;;;;4.53;4.13;;;;;;;;;;5053597;28;20442;-78
2022/12/07 11:06:38;;;;;;;5.90;5.40;;;;;;;;;;5053521;28;21079;-77
2022/12/07 11:09:17;;;;;;;4.37;3.97;;;;;;;;;;5054784;28;20467;-77
2022/12/07 11:11:47;;;;;;;4.10;3.80;;;;;;;;;;5053025;28;20448;-78
2022/12/07 11:14:21;;;;;;;3.93;3.67;;;;;;;;;;5053142;28;20446;-77
2022/12/07 11:16:57;;;;;;;4.40;4.00;;;;;;;;;;5053871;28;20458;-78
2022/12/07 11:19:44;;;;;;;4.67;4.30;;;;;;;;;;5053262;28;20927;-78
2022/12/07 11:22:15;;;;;;;4.67;4.37;;;;;;;;;;5054950;28;20552;-77
2022/12/07 11:24:44;;;;;;;3.03;2.83;;;;;;;;;;5059084;28;20894;-77
2022/12/07 11:27:19;;;;;;;3.20;3.00;;;;;;;;;;5055469;28;20457;-77
2022/12/07 11:29:54;;;;;;;3.77;3.50;;;;;;;;;;5057967;28;20981;-80
2022/12/07 11:32:24;;;;;;;3.17;2.70;;;;;;;;;;5061360;28;20418;-77
2022/12/07 11:34:56;;;;;;;3.50;3.20;;;;;;;;;;5055540;28;20465;-78
2022/12/07 11:37:27;;;;;;;3.03;2.83;;;;;;;;;;5056119;28;20465;-78
2022/12/07 11:39:55;;;;;;;4.83;3.10;;;;;;;;;;5054804;28;20444;-78
2022/12/07 11:42:26;;;;;;;7.23;3.27;;;;;;;;;;5056303;28;21012;-77
2022/12/07 11:44:55;;;;;;;4.07;3.77;;;;;;;;;;5057007;28;20500;-78
2022/12/07 11:47:27;;;;;;;3.93;3.63;;;;;;;;;;5055627;28;20446;-77
2022/12/07 11:49:56;;;;;;;5.43;4.77;;;;;;;;;;5054461;28;20507;-78
2022/12/07 11:52:27;;;;;;;6.17;5.57;;;;;;;;;;5053385;28;20940;-78
2022/12/07 11:54:55;;;;;;;6.10;5.50;;;;;;;;;;5053191;28;20469;-77
2022/12/07 11:57:27;;;;;;;4.83;4.43;;;;;;;;;;5052263;28;20452;-77
2022/12/07 11:59:58;;;;;;;5.60;5.10;;;;;;;;;;5052920;28;20445;-77
2022/12/07 12:02:27;;;;;;;5.87;5.37;;;;;;;;;;5052512;28;20496;-77
2022/12/07 12:04:56;;;;;;;6.27;5.67;;;;;;;;;;5052083;28;21135;-79
2022/12/07 12:07:24;;;;;;;6.40;5.63;;;;;;;;;;5052484;28;20431;-78
2022/12/07 12:09:54;;;;;;;7.37;6.67;;;;;;;;;;5052883;28;20445;-79
2022/12/07 12:12:41;;;;;;;7.00;6.17;;;;;;;;;;5052000;28;20454;-77
2022/12/07 12:15:17;;;;;;;6.37;5.87;;;;;;;;;;5051783;28;20476;-77
2022/12/07 12:17:55;;;;;;;7.57;6.87;;;;;;;;;;5051572;28;20433;-77
2022/12/07 12:20:25;;;;;;;7.47;6.70;;;;;;;;;;5051883;28;20444;-78
2022/12/07 12:22:53;;;;;;;8.03;6.80;;;;;;;;;;5050765;28;20834;-77
2022/12/07 12:25:22;;;;;;;8.13;7.33;;;;;;;;;;5059805;28;20886;-77
2022/12/07 12:27:51;;;;;;;7.57;6.80;;;;;;;;;;5070287;28;20448;-78
2022/12/07 12:30:31;;;;;;;7.00;6.30;;;;;;;;;;5075614;28;20944;-77
2022/12/07 12:33:03;;;;;;;6.93;6.43;;;;;;;;;;5054291;28;20444;-78
2022/12/07 12:35:31;;;;;;;7.50;6.80;;;;;;;;;;5067364;28;20469;-77
2022/12/07 12:38:13;;;;;;;7.70;7.00;;;;;;;;;;5051160;28;20449;-76
2022/12/07 12:40:45;;;;;;;7.13;6.50;;;;;;;;;;5059915;28;20829;-79
2022/12/07 12:43:30;;;;;;;7.90;6.10;;;;;;;;;;5072987;28;20465;-78
2022/12/07 12:46:12;;;;;;;6.13;5.53;;;;;;;;;;5074844;28;20555;-78
2022/12/07 12:48:41;;;;;;;6.90;6.30;;;;;;;;;;5072560;28;21210;-77
2022/12/07 12:51:26;;;;;;;6.57;5.90;;;;;;;;;;5060060;28;20445;-78
2022/12/07 12:53:54;;;;;;;6.17;5.57;;;;;;;;;;5051593;28;20796;-77
2022/12/07 12:56:29;;;;;;;8.37;6.30;;;;;;;;;;5052141;28;20466;-78
2022/12/07 12:59:15;;;;;;;8.83;6.07;;;;;;;;;;5050879;28;20453;-78
2022/12/07 13:01:43;;;;;;;7.03;6.33;;;;;;;;;;5053555;28;20443;-77
2022/12/07 13:04:23;;;;;;;7.00;6.13;;;;;;;;;;5060279;28;20592;-77
2022/12/07 13:06:50;;;;;;;12.30;6.10;;;;;;;;;;5068555;28;20472;-76
2022/12/07 13:09:22;;;;;;;6.97;5.63;;;;;;;;;;5068764;28;20441;-77
2022/12/07 13:11:49;;;;;;;6.50;5.90;;;;;;;;;;5068601;28;20475;-77
2022/12/07 13:14:35;;;;;;;8.60;5.40;;;;;;;;;;5068048;28;20641;-76
2022/12/07 13:17:02;;;;;;;6.40;5.80;;;;;;;;;;5068460;28;20952;-77
2022/12/07 13:20:00;;;;;;;6.77;6.17;;;;;;;;;;5068820;28;20444;-78
2022/12/07 13:22:54;;;;;;;6.90;5.90;;;;;;;;;;5070678;28;21041;-78
2022/12/07 13:25:46;;;;;;;7.63;5.23;;;;;;;;;;5070639;28;20479;-78
2022/12/07 13:28:17;;;;;;;6.00;5.50;;;;;;;;;;5070342;28;20437;-78
2022/12/07 13:30:46;;;;;;;6.50;5.90;;;;;;;;;;5070988;28;20437;-78
2022/12/07 13:33:14;;;;;;;7.10;6.40;;;;;;;;;;5070406;28;20439;-78
2022/12/07 13:35:41;;;;;;;7.53;6.73;;;;;;;;;;5071072;28;20460;-77
2022/12/07 13:38:18;;;;;;;7.40;6.50;;;;;;;;;;5070594;28;20880;-77
2022/12/07 13:41:00;;;;;;;9.43;6.33;;;;;;;;;;5070769;28;20424;-78
2022/12/07 13:43:27;;;;;;;6.67;6.07;;;;;;;;;;5071096;28;21085;-77
2022/12/07 13:45:57;;;;;;;7.07;6.47;;;;;;;;;;5070100;28;20465;-77
2022/12/07 13:48:29;;;;;;;7.30;6.60;;;;;;;;;;5070678;28;20772;-77
2022/12/07 13:50:57;;;;;;;6.43;5.87;;;;;;;;;;5070869;28;20815;-77
2022/12/07 13:53:24;;;;;;;7.03;6.40;;;;;;;;;;5069981;28;20441;-78
2022/12/07 13:55:52;;;;;;;7.97;7.17;;;;;;;;;;5070989;28;20555;-77
2022/12/07 13:58:20;;;;;;;7.10;6.40;;;;;;;;;;5071205;28;20445;-78
2022/12/07 14:00:47;;;;;;;7.97;7.17;;;;;;;;;;5070902;28;20456;-78
2022/12/07 14:03:28;;;;;;;7.47;6.80;;;;;;;;;;5081262;28;20479;-77
2022/12/07 14:06:05;;;;;;;7.53;6.83;;;;;;;;;;5086036;28;20646;-77
2022/12/07 14:08:32;;;;;;;7.83;7.13;;;;;;;;;;5086248;28;21019;-78
2022/12/07 14:11:01;;;;;;;7.23;6.53;;;;;;;;;;5086726;28;20447;-77
2022/12/07 14:13:31;;;;;;;8.83;7.83;;;;;;;;;;5084148;28;20430;-77
2022/12/07 14:15:59;;;;;;;7.77;6.73;;;;;;;;;;5068093;28;20481;-77
2022/12/07 14:18:28;;;;;;;6.80;6.10;;;;;;;;;;5055028;28;20445;-78
2022/12/07 14:21:04;;;;;;;9.67;6.20;;;;;;;;;;5054268;28;20441;-77
2022/12/07 14:23:31;;;;;;;7.87;7.07;;;;;;;;;;5053575;28;20850;-79
2022/12/07 14:26:08;;;;;;;8.77;7.10;;;;;;;;;;5054002;28;20473;-78
2022/12/07 14:28:36;;;;;;;7.87;7.07;;;;;;;;;;5054067;28;20524;-77
2022/12/07 14:31:04;;;;;;;7.80;7.10;;;;;;;;;;5055756;28;20500;-78
2022/12/07 14:33:31;;;;;;;8.73;6.67;;;;;;;;;;5055412;28;20444;-77
2022/12/07 14:35:58;;;;;;;8.63;7.80;;;;;;;;;;5055457;28;20462;-78
2022/12/07 14:38:26;;;;;;;7.37;6.63;;;;;;;;;;5055803;28;20579;-78
2022/12/07 14:40:54;;;;;;;9.93;7.73;;;;;;;;;;5055901;28;20433;-77
2022/12/07 14:43:22;;;;;;;8.60;7.83;;;;;;;;;;5054915;28;20989;-77
2022/12/07 14:45:49;;;;;;;8.53;7.63;;;;;;;;;;5054928;28;20473;-79
2022/12/07 14:48:17;;;;;;;8.70;7.33;;;;;;;;;;5055049;28;20532;-80
2022/12/07 14:50:46;;;;;;;8.53;7.73;;;;;;;;;;5054166;28;20456;-78
2022/12/07 14:53:15;;;;;;;8.40;7.60;;;;;;;;;;5054035;28;20464;-78
2022/12/07 14:55:42;;;;;;;9.30;8.40;;;;;;;;;;5054516;28;20470;-78